createdAt,value
2019-04-14T00:00:49.571Z,18.87
2019-04-14T00:03:34.798Z,19.07
2019-04-14T00:06:04.840Z,17.97
2019-04-14T00:08:32.713Z,18.20
2019-04-14T00:11:00.081Z,20.20
2019-04-14T00:13:28.454Z,19.47
2019-04-14T00:15:56.634Z,19.67
2019-04-14T00:18:25.119Z,19.20
2019-04-14T00:20:53.426Z,19.17
2019-04-14T00:23:21.544Z,18.60
2019-04-14T00:25:50.038Z,18.00
2019-04-14T00:28:18.433Z,19.23
2019-04-14T00:30:46.915Z,20.07
2019-04-14T00:33:15.250Z,21.60
2019-04-14T00:35:55.946Z,19.30
2019-04-14T00:38:30.319Z,19.97
2019-04-14T00:41:03.432Z,20.00
2019-04-14T00:43:45.835Z,18.97
2019-04-14T00:46:17.593Z,18.87
2019-04-14T00:48:45.554Z,18.73
2019-04-14T00:51:13.396Z,16.63
2019-04-14T00:53:40.643Z,19.23
2019-04-14T00:56:08.355Z,18.23
2019-04-14T00:58:36.599Z,19.80
2019-04-14T01:01:04.881Z,19.43
2019-04-14T01:03:33.043Z,21.80
2019-04-14T01:06:01.192Z,19.93
2019-04-14T01:08:29.253Z,20.80
2019-04-14T01:10:56.369Z,18.93
2019-04-14T01:13:24.600Z,19.13
2019-04-14T01:16:00.540Z,20.17
2019-04-14T01:18:21.253Z,19.50
2019-04-14T01:20:49.231Z,20.10
2019-04-14T01:23:17.157Z,14.60
2019-04-14T01:25:45.325Z,15.50
2019-04-14T01:28:13.634Z,17.53
2019-04-14T01:30:41.558Z,18.23
2019-04-14T01:33:09.646Z,20.10
2019-04-14T01:35:37.789Z,19.73
2019-04-14T01:38:05.885Z,16.30
2019-04-14T01:40:33.793Z,21.77
2019-04-14T01:43:01.722Z,18.43
2019-04-14T01:45:29.580Z,17.97
2019-04-14T01:47:57.549Z,20.20
2019-04-14T01:50:34.494Z,17.73
2019-04-14T01:53:13.913Z,18.70
2019-04-14T01:55:50.528Z,20.40
2019-04-14T01:58:25.237Z,20.37
2019-04-14T02:01:08.452Z,12.77
2019-04-14T02:03:36.629Z,13.53
2019-04-14T02:06:04.819Z,18.10
2019-04-14T02:08:32.896Z,18.43
2019-04-14T02:11:00.917Z,15.50
2019-04-14T02:13:28.934Z,21.03
2019-04-14T02:15:57.316Z,17.87
2019-04-14T02:18:25.111Z,15.17
2019-04-14T02:20:53.608Z,18.40
2019-04-14T02:23:21.498Z,15.93
2019-04-14T02:25:49.429Z,18.97
2019-04-14T02:28:17.778Z,14.60
2019-04-14T02:30:55.936Z,16.57
2019-04-14T02:33:44.278Z,20.30
2019-04-14T02:36:14.216Z,12.77
2019-04-14T02:38:49.167Z,8.93
2019-04-14T02:41:13.411Z,20.10
2019-04-14T02:43:38.100Z,11.57
2019-04-14T02:46:02.464Z,13.33
2019-04-14T02:51:06.118Z,12.93
2019-04-14T02:53:42.136Z,9.80
2019-04-14T02:56:11.602Z,8.10
2019-04-14T02:58:42.013Z,12.20
2019-04-14T03:03:30.582Z,8.30
2019-04-14T03:06:01.246Z,8.40
2019-04-14T03:08:36.105Z,10.53
2019-04-14T03:10:55.993Z,11.07
2019-04-14T03:15:56.887Z,9.37
2019-04-14T03:18:44.670Z,12.10
2019-04-14T03:21:29.954Z,9.17
2019-04-14T03:24:03.081Z,9.33
2019-04-14T03:26:46.331Z,7.10
2019-04-14T03:29:21.718Z,12.60
2019-04-14T03:32:02.468Z,12.20
2019-04-14T03:39:17.863Z,6.37
2019-04-14T03:41:45.166Z,7.13
2019-04-14T03:44:19.013Z,7.60
2019-04-14T03:46:41.574Z,7.30
2019-04-14T03:51:48.287Z,4.50
2019-04-14T03:54:03.748Z,7.23
2019-04-14T03:56:44.309Z,7.50
2019-04-14T03:59:12.724Z,8.10
2019-04-14T04:01:39.945Z,5.60
2019-04-14T04:04:07.512Z,6.87
2019-04-14T04:06:35.664Z,7.70
2019-04-14T04:09:04.451Z,5.87
2019-04-14T04:11:32.249Z,10.07
2019-04-14T04:14:00.683Z,6.90
2019-04-14T04:17:04.016Z,8.73
2019-04-14T04:19:51.402Z,7.47
2019-04-14T04:22:54.350Z,7.30
2019-04-14T04:25:47.068Z,5.60
2019-04-14T04:28:34.199Z,4.80
2019-04-14T04:31:24.261Z,4.50
2019-04-14T04:33:59.711Z,8.90
2019-04-14T04:36:48.888Z,8.00
2019-04-14T04:39:34.880Z,6.70
2019-04-14T04:42:01.055Z,8.17
2019-04-14T04:44:29.100Z,5.37
2019-04-14T04:46:56.963Z,7.43
2019-04-14T04:49:26.539Z,8.17
2019-04-14T04:51:53.118Z,4.33
2019-04-14T04:54:21.061Z,6.17
2019-04-14T04:56:49.185Z,8.80
2019-04-14T04:59:17.085Z,7.30
2019-04-14T05:01:45.138Z,7.57
2019-04-14T05:04:13.269Z,9.40
2019-04-14T05:07:01.897Z,5.67
2019-04-14T05:09:51.786Z,7.90
2019-04-14T05:12:47.978Z,4.93
2019-04-14T05:15:34.082Z,7.23
2019-04-14T05:18:01.227Z,7.40
2019-04-14T05:20:29.203Z,8.70
2019-04-14T05:22:57.244Z,8.20
2019-04-14T05:25:25.347Z,8.47
2019-04-14T05:27:53.797Z,8.03
2019-04-14T05:30:21.879Z,6.93
2019-04-14T05:32:50.169Z,6.80
2019-04-14T05:35:18.329Z,7.70
2019-04-14T05:37:46.479Z,8.83
2019-04-14T05:40:14.534Z,7.80
2019-04-14T05:42:42.746Z,8.80
2019-04-14T05:45:11.204Z,7.63
2019-04-14T05:47:39.281Z,7.43
2019-04-14T05:50:07.356Z,5.10
2019-04-14T05:52:34.550Z,6.30
2019-04-14T05:55:02.482Z,4.70
2019-04-14T05:57:30.596Z,6.03
2019-04-14T05:59:57.616Z,7.30
2019-04-14T06:02:27.457Z,6.93
2019-04-14T06:04:55.202Z,3.90
2019-04-14T06:07:22.227Z,5.73
2019-04-14T06:09:49.352Z,6.70
2019-04-14T06:12:16.672Z,6.77
2019-04-14T06:14:43.767Z,5.13
2019-04-14T06:17:11.020Z,5.80
2019-04-14T06:19:40.633Z,5.10
2019-04-14T06:22:07.544Z,3.03
2019-04-14T06:24:34.659Z,7.43
2019-04-14T06:27:01.928Z,7.33
2019-04-14T06:29:28.931Z,4.97
2019-04-14T06:32:08.950Z,5.90
2019-04-14T06:34:45.858Z,6.97
2019-04-14T06:37:50.991Z,3.87
2019-04-14T06:40:18.982Z,6.97
2019-04-14T06:42:46.114Z,8.27
2019-04-14T06:45:13.754Z,6.80
2019-04-14T06:47:40.872Z,7.57
2019-04-14T06:50:08.090Z,7.60
2019-04-14T06:52:35.115Z,4.50
2019-04-14T06:55:02.278Z,8.40
2019-04-14T06:57:29.424Z,4.13
2019-04-14T06:59:56.459Z,5.80
2019-04-14T07:02:23.482Z,6.50
2019-04-14T07:04:50.568Z,6.73
2019-04-14T07:07:17.594Z,8.77
2019-04-14T07:09:44.687Z,9.60
2019-04-14T07:12:11.893Z,5.20
2019-04-14T07:14:39.053Z,8.50
2019-04-14T07:17:06.166Z,9.10
2019-04-14T07:19:33.204Z,7.70
2019-04-14T07:22:00.456Z,5.10
2019-04-14T07:24:27.607Z,10.47
2019-04-14T07:26:54.660Z,7.63
2019-04-14T07:29:23.992Z,6.87
2019-04-14T07:32:10.718Z,7.43
2019-04-14T07:35:09.775Z,8.50
2019-04-14T07:37:58.834Z,7.23
2019-04-14T07:40:45.303Z,13.27
2019-04-14T07:43:30.956Z,9.10
2019-04-14T07:46:08.445Z,8.20
2019-04-14T07:48:43.791Z,11.20
2019-04-14T07:51:24.251Z,8.50
2019-04-14T07:53:58.439Z,5.90
2019-04-14T07:56:45.098Z,10.33
2019-04-14T07:59:17.611Z,11.47
2019-04-14T08:01:57.232Z,7.00
2019-04-14T08:04:32.594Z,10.57
2019-04-14T08:06:59.931Z,11.40
2019-04-14T08:09:27.198Z,6.50
2019-04-14T08:11:54.382Z,11.00
2019-04-14T08:14:21.446Z,9.30
2019-04-14T08:16:48.472Z,9.30
2019-04-14T08:19:15.618Z,11.27
2019-04-14T08:21:42.839Z,12.53
2019-04-14T08:24:09.971Z,5.50
2019-04-14T08:26:37.080Z,10.70
2019-04-14T08:29:04.272Z,8.27
2019-04-14T08:31:31.389Z,8.50
2019-04-14T08:33:58.520Z,7.77
2019-04-14T08:36:25.948Z,10.97
2019-04-14T08:38:53.187Z,10.60
2019-04-14T08:41:20.435Z,11.13
2019-04-14T08:43:59.682Z,12.03
2019-04-14T08:46:50.461Z,11.43
2019-04-14T08:49:24.336Z,12.30
2019-04-14T08:52:03.193Z,12.30
2019-04-14T08:54:48.528Z,13.50
2019-04-14T08:57:30.941Z,15.03
2019-04-14T09:00:15.931Z,13.33
2019-04-14T09:03:06.403Z,13.20
2019-04-14T09:05:53.255Z,12.07
2019-04-14T09:08:28.324Z,14.70
2019-04-14T09:10:57.902Z,14.97
2019-04-14T09:13:25.091Z,16.07
2019-04-14T09:15:52.357Z,16.07
2019-04-14T09:18:19.581Z,16.73
2019-04-14T09:20:52.388Z,17.70
2019-04-14T09:23:15.563Z,20.23
2019-04-14T09:25:42.600Z,16.47
2019-04-14T09:28:09.865Z,14.50
2019-04-14T09:30:36.947Z,20.53
2019-04-14T09:33:04.530Z,18.53
2019-04-14T09:35:31.598Z,21.60
2019-04-14T09:37:58.599Z,19.73
2019-04-14T09:40:26.005Z,24.03
2019-04-14T09:42:53.110Z,23.87
2019-04-14T09:45:20.336Z,24.93
2019-04-14T09:47:47.473Z,26.20
2019-04-14T09:50:14.682Z,23.80
2019-04-14T09:52:41.811Z,23.93
2019-04-14T09:55:09.011Z,24.20
2019-04-14T09:57:36.132Z,27.90
2019-04-14T10:00:04.796Z,19.60
2019-04-14T10:02:31.933Z,26.20
2019-04-14T10:04:59.139Z,27.80
2019-04-14T10:07:26.375Z,28.90
2019-04-14T10:09:53.562Z,30.10
2019-04-14T10:12:20.718Z,25.90
2019-04-14T10:14:47.835Z,14.20
2019-04-14T10:17:15.224Z,24.50
2019-04-14T10:19:42.272Z,29.83
2019-04-14T10:22:09.607Z,28.10
2019-04-14T10:24:36.771Z,30.80
2019-04-14T10:27:04.000Z,19.70
2019-04-14T10:29:31.155Z,29.30
2019-04-14T10:31:58.342Z,27.20
2019-04-14T10:34:25.472Z,27.87
2019-04-14T10:36:52.579Z,32.57
2019-04-14T10:39:19.791Z,32.10
2019-04-14T10:41:47.044Z,26.70
2019-04-14T10:44:14.272Z,34.87
2019-04-14T10:46:41.391Z,37.17
2019-04-14T10:49:08.650Z,38.70
2019-04-14T10:51:35.793Z,29.83
2019-04-14T10:54:02.983Z,26.17
2019-04-14T10:56:29.987Z,28.83
2019-04-14T10:58:57.186Z,33.80
2019-04-14T11:01:24.404Z,33.47
2019-04-14T11:03:51.426Z,38.80
2019-04-14T11:06:24.691Z,36.43
2019-04-14T11:08:51.915Z,31.53
2019-04-14T11:11:19.007Z,47.67
2019-04-14T11:13:46.254Z,36.10
2019-04-14T11:16:13.464Z,51.27
2019-04-14T11:18:40.712Z,37.73
2019-04-14T11:21:07.834Z,31.13
2019-04-14T11:23:34.884Z,32.30
2019-04-14T11:26:02.078Z,37.47
2019-04-14T11:28:29.217Z,36.23
2019-04-14T11:30:56.413Z,34.33
2019-04-14T11:33:29.852Z,34.20
2019-04-14T11:36:34.667Z,37.73
2019-04-14T11:39:07.724Z,39.17
2019-04-14T11:41:34.749Z,33.93
2019-04-14T11:44:01.931Z,37.50
2019-04-14T11:46:29.476Z,33.67
2019-04-14T11:48:56.608Z,33.60
2019-04-14T11:51:23.819Z,32.47
2019-04-14T11:53:50.876Z,35.17
2019-04-14T11:56:18.109Z,36.17
2019-04-14T11:58:45.271Z,33.40
2019-04-14T12:01:31.462Z,36.10
2019-04-14T12:04:18.263Z,36.27
2019-04-14T12:07:05.122Z,35.87
2019-04-14T12:09:38.360Z,29.97
2019-04-14T12:12:07.564Z,33.10
2019-04-14T12:14:34.809Z,36.43
2019-04-14T12:17:01.904Z,34.67
2019-04-14T12:19:28.957Z,33.50
2019-04-14T12:22:07.608Z,32.17
2019-04-14T12:24:25.475Z,33.73
2019-04-14T12:26:52.668Z,31.33
2019-04-14T12:29:19.765Z,32.30
2019-04-14T12:31:48.609Z,34.00
2019-04-14T12:34:18.295Z,36.17
2019-04-14T12:36:45.053Z,36.93
2019-04-14T12:39:19.903Z,36.70
2019-04-14T12:41:51.824Z,28.83
2019-04-14T12:44:36.936Z,29.90
2019-04-14T12:47:10.925Z,28.03
2019-04-14T12:49:41.066Z,26.60
2019-04-14T12:52:21.510Z,17.50
2019-04-14T12:54:48.048Z,25.90
2019-04-14T12:57:17.582Z,27.17
2019-04-14T12:59:45.923Z,30.53
2019-04-14T13:02:19.538Z,29.50
2019-04-14T13:04:46.773Z,28.00
2019-04-14T13:07:14.095Z,27.47
2019-04-14T13:09:42.020Z,22.07
2019-04-14T13:12:10.499Z,22.90
2019-04-14T13:14:37.719Z,27.47
2019-04-14T13:17:05.237Z,28.80
2019-04-14T13:19:32.363Z,27.93
2019-04-14T13:21:59.420Z,25.37
2019-04-14T13:24:26.663Z,28.07
2019-04-14T13:26:53.771Z,29.00
2019-04-14T13:29:21.046Z,28.90
2019-04-14T13:31:48.166Z,31.37
2019-04-14T13:34:15.416Z,25.97
2019-04-14T13:36:42.726Z,34.00
2019-04-14T13:39:12.579Z,32.00
2019-04-14T13:41:39.027Z,19.70
2019-04-14T13:44:07.331Z,29.87
2019-04-14T13:46:34.567Z,24.40
2019-04-14T13:49:01.844Z,25.03
2019-04-14T13:51:29.116Z,27.60
2019-04-14T13:53:56.256Z,26.70
2019-04-14T13:56:23.483Z,18.40
2019-04-14T13:58:50.603Z,22.20
2019-04-14T14:01:17.855Z,20.57
2019-04-14T14:03:46.076Z,16.70
2019-04-14T14:06:13.183Z,23.13
2019-04-14T14:08:40.475Z,23.03
2019-04-14T14:11:22.644Z,19.70
2019-04-14T14:13:58.392Z,24.03
2019-04-14T14:16:54.080Z,26.77
2019-04-14T14:19:40.852Z,25.80
2019-04-14T14:22:26.397Z,20.63
2019-04-14T14:25:05.031Z,17.73
2019-04-14T14:27:32.180Z,18.40
2019-04-14T14:29:59.200Z,23.47
2019-04-14T14:32:38.257Z,18.60
2019-04-14T14:35:05.686Z,20.97
2019-04-14T14:37:32.778Z,24.13
2019-04-14T14:40:00.005Z,22.73
2019-04-14T14:42:27.267Z,22.53
2019-04-14T14:45:04.853Z,18.37
2019-04-14T14:47:32.824Z,35.00
2019-04-14T14:50:06.468Z,24.27
2019-04-14T14:52:34.170Z,29.47
2019-04-14T14:55:01.357Z,20.70
2019-04-14T14:57:29.641Z,21.67
2019-04-14T14:59:56.850Z,21.43
2019-04-14T15:02:24.087Z,22.53
2019-04-14T15:04:51.183Z,18.37
2019-04-14T15:07:18.295Z,13.90
2019-04-14T15:09:45.399Z,13.70
2019-04-14T15:12:12.921Z,16.10
2019-04-14T15:14:40.040Z,16.70
2019-04-14T15:17:08.485Z,13.77
2019-04-14T15:19:35.875Z,16.47
2019-04-14T15:22:03.355Z,16.00
2019-04-14T15:24:30.483Z,19.00
2019-04-14T15:26:58.868Z,19.37
2019-04-14T15:29:27.110Z,18.57
2019-04-14T15:31:54.246Z,21.43
2019-04-14T15:34:21.631Z,23.40
2019-04-14T15:36:49.040Z,18.10
2019-04-14T15:39:16.660Z,19.70
2019-04-14T15:41:43.801Z,20.17
2019-04-14T15:44:11.300Z,20.63
2019-04-14T15:46:38.441Z,22.63
2019-04-14T15:49:05.454Z,22.13
2019-04-14T15:51:32.767Z,18.93
2019-04-14T15:54:00.907Z,19.23
2019-04-14T15:56:47.724Z,18.47
2019-04-14T15:59:40.375Z,19.77
2019-04-14T16:02:26.488Z,18.70
2019-04-14T16:05:28.331Z,20.33
2019-04-14T16:08:00.390Z,20.37
2019-04-14T16:10:41.612Z,18.30
2019-04-14T16:13:11.608Z,20.60
2019-04-14T16:15:51.611Z,19.90
2019-04-14T16:18:44.158Z,18.83
2019-04-14T16:21:11.369Z,19.10
2019-04-14T16:23:49.946Z,19.73
2019-04-14T16:26:19.043Z,14.87
2019-04-14T16:28:51.097Z,18.00
2019-04-14T16:31:36.412Z,20.03
2019-04-14T16:34:24.831Z,18.17
2019-04-14T16:36:52.196Z,16.63
2019-04-14T16:39:19.450Z,18.23
2019-04-14T16:41:48.881Z,19.00
2019-04-14T16:44:16.184Z,19.20
2019-04-14T16:46:43.413Z,19.80
2019-04-14T16:49:10.739Z,17.37
2019-04-14T16:51:45.916Z,19.17
2019-04-14T16:54:21.479Z,18.30
2019-04-14T16:57:19.818Z,18.23
2019-04-14T16:59:49.391Z,19.87
2019-04-14T17:02:16.536Z,18.10
2019-04-14T17:04:43.853Z,17.27
2019-04-14T17:07:16.345Z,18.00
2019-04-14T17:09:43.631Z,17.27
2019-04-14T17:12:11.096Z,21.03
2019-04-14T17:14:57.853Z,17.37
2019-04-14T17:17:42.101Z,18.03
2019-04-14T17:20:19.471Z,19.70
2019-04-14T17:22:58.933Z,20.87
2019-04-14T17:25:39.778Z,23.17
2019-04-14T17:28:25.649Z,20.30
2019-04-14T17:30:57.552Z,18.73
2019-04-14T17:33:31.588Z,18.37
2019-04-14T17:36:24.079Z,17.90
2019-04-14T17:39:07.923Z,16.40
2019-04-14T17:41:56.895Z,18.23
2019-04-14T17:44:32.131Z,16.87
2019-04-14T17:47:10.109Z,16.83
2019-04-14T17:49:55.497Z,18.97
2019-04-14T17:52:30.645Z,18.00
2019-04-14T17:55:22.721Z,17.63
2019-04-14T17:58:03.491Z,18.73
2019-04-14T18:00:54.396Z,19.77
2019-04-14T18:03:37.301Z,18.60
2019-04-14T18:06:24.304Z,18.73
2019-04-14T18:09:19.908Z,18.50
2019-04-14T18:12:02.416Z,20.00
2019-04-14T18:15:07.262Z,20.83
2019-04-14T18:17:42.482Z,18.13
2019-04-14T18:20:16.952Z,18.30
2019-04-14T18:22:44.144Z,14.53
2019-04-14T18:25:11.568Z,15.43
2019-04-14T18:28:04.412Z,16.70
2019-04-14T18:30:35.904Z,15.87
2019-04-14T18:33:09.023Z,17.30
2019-04-14T18:35:43.633Z,17.67
2019-04-14T18:38:21.279Z,20.67
2019-04-14T18:40:57.683Z,19.83
2019-04-14T18:43:43.252Z,21.13
2019-04-14T18:46:14.746Z,18.40
2019-04-14T18:49:00.612Z,17.83
2019-04-14T18:51:34.141Z,16.63
2019-04-14T18:54:35.094Z,17.60
2019-04-14T18:57:16.288Z,16.50
2019-04-14T18:59:47.368Z,16.50
2019-04-14T19:02:16.849Z,17.00
2019-04-14T19:04:44.207Z,17.47
2019-04-14T19:07:11.542Z,15.90
2019-04-14T19:09:38.531Z,14.53
2019-04-14T19:12:24.010Z,17.00
2019-04-14T19:14:55.914Z,16.33
2019-04-14T19:17:30.648Z,15.43
2019-04-14T19:20:02.055Z,16.47
2019-04-14T19:22:27.137Z,16.80
2019-04-14T19:25:06.985Z,18.00
2019-04-14T19:27:23.516Z,18.00
2019-04-14T19:29:50.828Z,18.03
2019-04-14T19:32:18.218Z,17.90
2019-04-14T19:34:45.567Z,19.23
2019-04-14T19:37:12.885Z,18.77
2019-04-14T19:39:40.455Z,17.10
2019-04-14T19:42:07.780Z,17.10
2019-04-14T19:44:37.172Z,17.40
2019-04-14T19:47:04.288Z,16.37
2019-04-14T19:49:31.849Z,17.93
2019-04-14T19:51:59.193Z,17.23
2019-04-14T19:54:26.293Z,18.37
2019-04-14T19:56:53.544Z,18.23
2019-04-14T19:59:20.676Z,17.90
2019-04-14T20:01:47.825Z,18.13
2019-04-14T20:04:14.968Z,19.30
2019-04-14T20:06:42.265Z,19.07
2019-04-14T20:09:09.457Z,17.30
2019-04-14T20:11:36.624Z,17.13
2019-04-14T20:14:04.036Z,17.83
2019-04-14T20:16:41.565Z,18.10
2019-04-14T20:19:27.327Z,19.73
2019-04-14T20:22:08.615Z,17.03
2019-04-14T20:24:44.655Z,16.47
2019-04-14T20:27:30.472Z,18.80
2019-04-14T20:29:58.815Z,24.17
2019-04-14T20:32:31.668Z,27.63
2019-04-14T20:35:00.119Z,24.80
2019-04-14T20:37:27.251Z,28.90
2019-04-14T20:39:54.498Z,30.40
2019-04-14T20:42:21.632Z,32.13
2019-04-14T20:44:48.768Z,32.27
2019-04-14T20:47:16.012Z,37.70
2019-04-14T20:49:44.424Z,39.00
2019-04-14T20:52:11.562Z,40.00
2019-04-14T20:54:38.764Z,35.90
2019-04-14T20:57:05.931Z,37.17
2019-04-14T20:59:32.960Z,34.20
2019-04-14T21:02:18.526Z,35.63
2019-04-14T21:05:15.619Z,35.57
2019-04-14T21:08:02.563Z,37.43
2019-04-14T21:10:38.698Z,42.17
2019-04-14T21:13:26.726Z,40.73
2019-04-14T21:16:12.197Z,42.40
2019-04-14T21:18:35.136Z,41.50
2019-04-14T21:21:12.665Z,39.70
2019-04-14T21:23:58.277Z,39.77
2019-04-14T21:26:50.715Z,42.53
2019-04-14T21:29:40.180Z,43.57
2019-04-14T21:32:25.464Z,40.00
2019-04-14T21:34:59.779Z,41.83
2019-04-14T21:37:49.430Z,41.00
2019-04-14T21:40:39.197Z,40.23
2019-04-14T21:43:06.279Z,40.33
2019-04-14T21:45:33.479Z,40.40
2019-04-14T21:48:00.706Z,40.00
2019-04-14T21:50:27.818Z,39.77
2019-04-14T21:52:54.959Z,40.17
2019-04-14T21:55:22.145Z,38.67
2019-04-14T21:58:11.968Z,38.40
2019-04-14T22:01:35.587Z,38.80
2019-04-14T22:04:12.370Z,37.87
2019-04-14T22:06:40.699Z,38.67
2019-04-14T22:09:13.960Z,40.73
2019-04-14T22:11:40.961Z,38.73
2019-04-14T22:14:08.162Z,37.43
2019-04-14T22:16:35.699Z,41.37
2019-04-14T22:19:02.800Z,39.07
2019-04-14T22:21:29.800Z,37.33
2019-04-14T22:24:01.654Z,39.10
2019-04-14T22:26:26.649Z,37.87
2019-04-14T22:28:53.850Z,36.77
2019-04-14T22:31:20.970Z,35.80
2019-04-14T22:33:48.216Z,34.70
2019-04-14T22:36:15.318Z,32.97
2019-04-14T22:38:42.343Z,34.57
2019-04-14T22:41:09.369Z,34.30
2019-04-14T22:43:36.591Z,31.50
2019-04-14T22:46:03.786Z,31.33
2019-04-14T22:48:31.144Z,33.77
2019-04-14T22:50:58.367Z,32.77
2019-04-14T22:53:25.634Z,29.70
2019-04-14T22:55:52.796Z,29.53
2019-04-14T22:58:20.013Z,30.23
2019-04-14T23:00:51.327Z,35.23
2019-04-14T23:03:38.236Z,30.83
2019-04-14T23:06:19.170Z,30.20
2019-04-14T23:09:06.084Z,27.70
2019-04-14T23:11:51.428Z,29.20
2019-04-14T23:14:26.941Z,27.27
2019-04-14T23:17:20.380Z,28.80
2019-04-14T23:19:53.036Z,30.00
2019-04-14T23:22:35.620Z,31.17
2019-04-14T23:25:02.996Z,29.80
2019-04-14T23:27:30.122Z,29.87
2019-04-14T23:29:58.355Z,32.40
2019-04-14T23:32:25.585Z,31.77
2019-04-14T23:34:52.594Z,30.40
2019-04-14T23:37:19.825Z,32.50
2019-04-14T23:39:46.943Z,34.80
2019-04-14T23:42:14.136Z,32.70
2019-04-14T23:44:41.458Z,30.00
2019-04-14T23:47:08.967Z,30.70
2019-04-14T23:49:36.079Z,29.90
2019-04-14T23:52:03.306Z,30.50
2019-04-14T23:54:30.443Z,30.50
2019-04-14T23:57:05.252Z,28.90
2019-04-14T23:59:26.608Z,30.70
